sensor_id;sensor_type;location;lat;lon;timestamp;P1;durP1;ratioP1;P2;durP2;ratioP2
14768;SDS011;7476;49.404;11.152;2022-10-12T00:01:17;13.27;;;10.30;;
14768;SDS011;7476;49.404;11.152;2022-10-12T00:03:43;14.20;;;10.27;;
14768;SDS011;7476;49.404;11.152;2022-10-12T00:06:11;14.47;;;10.53;;
14768;SDS011;7476;49.404;11.152;2022-10-12T00:08:39;18.40;;;11.53;;
14768;SDS011;7476;49.404;11.152;2022-10-12T00:11:07;16.97;;;11.13;;
14768;SDS011;7476;49.404;11.152;2022-10-12T00:13:38;15.93;;;11.63;;
14768;SDS011;7476;49.404;11.152;2022-10-12T00:16:06;17.27;;;12.20;;
14768;SDS011;7476;49.404;11.152;2022-10-12T00:18:34;15.90;;;11.90;;
14768;SDS011;7476;49.404;11.152;2022-10-12T00:21:01;13.73;;;11.80;;
14768;SDS011;7476;49.404;11.152;2022-10-12T00:23:30;21.87;;;11.43;;
14768;SDS011;7476;49.404;11.152;2022-10-12T00:26:00;16.07;;;11.60;;
14768;SDS011;7476;49.404;11.152;2022-10-12T00:28:29;14.90;;;11.30;;
14768;SDS011;7476;49.404;11.152;2022-10-12T00:30:58;17.97;;;11.90;;
14768;SDS011;7476;49.404;11.152;2022-10-12T00:33:26;14.03;;;11.27;;
14768;SDS011;7476;49.404;11.152;2022-10-12T00:35:52;21.03;;;12.63;;
14768;SDS011;7476;49.404;11.152;2022-10-12T00:38:20;16.70;;;11.63;;
14768;SDS011;7476;49.404;11.152;2022-10-12T00:40:47;17.43;;;11.40;;
14768;SDS011;7476;49.404;11.152;2022-10-12T00:43:27;16.27;;;11.53;;
14768;SDS011;7476;49.404;11.152;2022-10-12T00:45:59;21.03;;;12.20;;
14768;SDS011;7476;49.404;11.152;2022-10-12T00:48:28;18.07;;;12.63;;
14768;SDS011;7476;49.404;11.152;2022-10-12T00:50:55;15.63;;;12.07;;
14768;SDS011;7476;49.404;11.152;2022-10-12T00:53:25;16.27;;;11.83;;
14768;SDS011;7476;49.404;11.152;2022-10-12T00:55:59;17.03;;;12.63;;
14768;SDS011;7476;49.404;11.152;2022-10-12T00:58:28;14.50;;;11.30;;
14768;SDS011;7476;49.404;11.152;2022-10-12T01:00:57;17.47;;;11.50;;
14768;SDS011;7476;49.404;11.152;2022-10-12T01:03:26;14.57;;;11.23;;
14768;SDS011;7476;49.404;11.152;2022-10-12T01:05:53;21.23;;;10.63;;
14768;SDS011;7476;49.404;11.152;2022-10-12T01:08:20;16.03;;;10.93;;
14768;SDS011;7476;49.404;11.152;2022-10-12T01:10:47;15.13;;;10.83;;
14768;SDS011;7476;49.404;11.152;2022-10-12T01:13:14;16.03;;;11.00;;
14768;SDS011;7476;49.404;11.152;2022-10-12T01:15:43;15.97;;;11.13;;
14768;SDS011;7476;49.404;11.152;2022-10-12T01:18:17;17.80;;;11.37;;
14768;SDS011;7476;49.404;11.152;2022-10-12T01:20:58;17.33;;;11.80;;
14768;SDS011;7476;49.404;11.152;2022-10-12T01:26:38;15.47;;;11.50;;
14768;SDS011;7476;49.404;11.152;2022-10-12T01:32:29;16.60;;;11.27;;
14768;SDS011;7476;49.404;11.152;2022-10-12T01:35:00;17.77;;;12.07;;
14768;SDS011;7476;49.404;11.152;2022-10-12T01:37:34;16.53;;;11.23;;
14768;SDS011;7476;49.404;11.152;2022-10-12T01:40:10;18.73;;;11.57;;
14768;SDS011;7476;49.404;11.152;2022-10-12T01:42:40;15.47;;;11.43;;
14768;SDS011;7476;49.404;11.152;2022-10-12T01:45:11;19.10;;;13.13;;
14768;SDS011;7476;49.404;11.152;2022-10-12T01:47:40;14.97;;;11.17;;
14768;SDS011;7476;49.404;11.152;2022-10-12T01:50:10;13.97;;;10.97;;
14768;SDS011;7476;49.404;11.152;2022-10-12T01:52:40;12.80;;;10.97;;
14768;SDS011;7476;49.404;11.152;2022-10-12T01:55:18;17.87;;;11.70;;
14768;SDS011;7476;49.404;11.152;2022-10-12T01:58:06;21.80;;;12.30;;
14768;SDS011;7476;49.404;11.152;2022-10-12T02:00:46;16.60;;;11.77;;
14768;SDS011;7476;49.404;11.152;2022-10-12T02:03:19;17.80;;;11.37;;
14768;SDS011;7476;49.404;11.152;2022-10-12T02:05:51;15.43;;;11.17;;
14768;SDS011;7476;49.404;11.152;2022-10-12T02:08:23;15.93;;;10.93;;
14768;SDS011;7476;49.404;11.152;2022-10-12T02:10:52;15.23;;;10.27;;
14768;SDS011;7476;49.404;11.152;2022-10-12T02:13:25;16.60;;;10.27;;
14768;SDS011;7476;49.404;11.152;2022-10-12T02:15:59;16.50;;;10.50;;
14768;SDS011;7476;49.404;11.152;2022-10-12T02:18:29;20.30;;;11.47;;
14768;SDS011;7476;49.404;11.152;2022-10-12T02:20:58;13.83;;;11.40;;
14768;SDS011;7476;49.404;11.152;2022-10-12T02:23:25;18.03;;;11.43;;
14768;SDS011;7476;49.404;11.152;2022-10-12T02:25:53;14.00;;;10.80;;
14768;SDS011;7476;49.404;11.152;2022-10-12T02:28:24;12.97;;;10.27;;
14768;SDS011;7476;49.404;11.152;2022-10-12T02:30:52;14.67;;;10.77;;
14768;SDS011;7476;49.404;11.152;2022-10-12T02:33:26;16.87;;;11.17;;
14768;SDS011;7476;49.404;11.152;2022-10-12T02:35:57;14.87;;;9.60;;
14768;SDS011;7476;49.404;11.152;2022-10-12T02:38:29;12.87;;;10.67;;
14768;SDS011;7476;49.404;11.152;2022-10-12T02:41:00;14.27;;;10.90;;
14768;SDS011;7476;49.404;11.152;2022-10-12T02:43:32;17.03;;;11.10;;
14768;SDS011;7476;49.404;11.152;2022-10-12T02:46:03;14.80;;;10.23;;
14768;SDS011;7476;49.404;11.152;2022-10-12T02:48:33;13.47;;;10.30;;
14768;SDS011;7476;49.404;11.152;2022-10-12T02:51:02;14.93;;;10.53;;
14768;SDS011;7476;49.404;11.152;2022-10-12T02:53:32;16.43;;;11.03;;
14768;SDS011;7476;49.404;11.152;2022-10-12T02:56:00;16.77;;;11.90;;
14768;SDS011;7476;49.404;11.152;2022-10-12T02:58:29;15.20;;;11.53;;
14768;SDS011;7476;49.404;11.152;2022-10-12T03:00:56;14.80;;;10.53;;
14768;SDS011;7476;49.404;11.152;2022-10-12T03:03:22;15.67;;;11.13;;
14768;SDS011;7476;49.404;11.152;2022-10-12T03:05:51;14.83;;;10.83;;
14768;SDS011;7476;49.404;11.152;2022-10-12T03:08:18;16.87;;;10.43;;
14768;SDS011;7476;49.404;11.152;2022-10-12T03:10:45;17.13;;;10.97;;
14768;SDS011;7476;49.404;11.152;2022-10-12T03:13:11;13.23;;;10.07;;
14768;SDS011;7476;49.404;11.152;2022-10-12T03:15:38;13.33;;;10.17;;
14768;SDS011;7476;49.404;11.152;2022-10-12T03:18:05;17.90;;;11.57;;
14768;SDS011;7476;49.404;11.152;2022-10-12T03:20:32;19.93;;;11.83;;
14768;SDS011;7476;49.404;11.152;2022-10-12T03:23:00;18.53;;;11.63;;
14768;SDS011;7476;49.404;11.152;2022-10-12T03:25:26;17.00;;;11.00;;
14768;SDS011;7476;49.404;11.152;2022-10-12T03:27:53;17.73;;;11.17;;
14768;SDS011;7476;49.404;11.152;2022-10-12T03:30:20;15.20;;;11.47;;
14768;SDS011;7476;49.404;11.152;2022-10-12T03:32:46;16.57;;;10.73;;
14768;SDS011;7476;49.404;11.152;2022-10-12T03:35:13;16.97;;;11.60;;
14768;SDS011;7476;49.404;11.152;2022-10-12T03:37:40;20.53;;;12.47;;
14768;SDS011;7476;49.404;11.152;2022-10-12T03:40:09;15.93;;;12.03;;
14768;SDS011;7476;49.404;11.152;2022-10-12T03:42:36;14.57;;;11.30;;
14768;SDS011;7476;49.404;11.152;2022-10-12T03:45:03;18.43;;;11.33;;
14768;SDS011;7476;49.404;11.152;2022-10-12T03:47:30;13.07;;;10.40;;
14768;SDS011;7476;49.404;11.152;2022-10-12T03:49:57;15.50;;;11.07;;
14768;SDS011;7476;49.404;11.152;2022-10-12T03:52:24;14.47;;;10.20;;
14768;SDS011;7476;49.404;11.152;2022-10-12T03:54:50;14.13;;;11.10;;
14768;SDS011;7476;49.404;11.152;2022-10-12T03:57:18;15.83;;;11.50;;
14768;SDS011;7476;49.404;11.152;2022-10-12T03:59:45;17.60;;;10.57;;
14768;SDS011;7476;49.404;11.152;2022-10-12T04:02:12;16.43;;;11.67;;
14768;SDS011;7476;49.404;11.152;2022-10-12T04:04:38;15.53;;;11.57;;
14768;SDS011;7476;49.404;11.152;2022-10-12T04:07:05;14.10;;;10.73;;
14768;SDS011;7476;49.404;11.152;2022-10-12T04:09:32;15.13;;;10.37;;
14768;SDS011;7476;49.404;11.152;2022-10-12T04:11:59;15.00;;;11.07;;
14768;SDS011;7476;49.404;11.152;2022-10-12T04:14:27;17.00;;;10.90;;
14768;SDS011;7476;49.404;11.152;2022-10-12T04:16:54;18.17;;;11.20;;
14768;SDS011;7476;49.404;11.152;2022-10-12T04:19:21;16.67;;;10.80;;
14768;SDS011;7476;49.404;11.152;2022-10-12T04:21:47;15.83;;;10.77;;
14768;SDS011;7476;49.404;11.152;2022-10-12T04:24:14;18.77;;;11.37;;
14768;SDS011;7476;49.404;11.152;2022-10-12T04:26:41;16.20;;;10.43;;
14768;SDS011;7476;49.404;11.152;2022-10-12T04:29:08;15.43;;;10.43;;
14768;SDS011;7476;49.404;11.152;2022-10-12T04:31:38;17.27;;;10.10;;
14768;SDS011;7476;49.404;11.152;2022-10-12T04:34:05;13.47;;;9.63;;
14768;SDS011;7476;49.404;11.152;2022-10-12T04:36:31;17.37;;;10.63;;
14768;SDS011;7476;49.404;11.152;2022-10-12T04:38:58;15.10;;;10.20;;
14768;SDS011;7476;49.404;11.152;2022-10-12T04:41:25;13.40;;;10.13;;
14768;SDS011;7476;49.404;11.152;2022-10-12T04:43:51;16.17;;;10.03;;
14768;SDS011;7476;49.404;11.152;2022-10-12T04:46:18;14.67;;;10.37;;
14768;SDS011;7476;49.404;11.152;2022-10-12T04:48:46;15.37;;;10.50;;
14768;SDS011;7476;49.404;11.152;2022-10-12T04:51:13;16.07;;;10.63;;
14768;SDS011;7476;49.404;11.152;2022-10-12T04:53:39;14.80;;;10.07;;
14768;SDS011;7476;49.404;11.152;2022-10-12T04:56:06;16.53;;;10.20;;
14768;SDS011;7476;49.404;11.152;2022-10-12T04:58:33;16.03;;;10.50;;
14768;SDS011;7476;49.404;11.152;2022-10-12T05:01:00;17.07;;;10.80;;
14768;SDS011;7476;49.404;11.152;2022-10-12T05:03:27;15.53;;;10.23;;
14768;SDS011;7476;49.404;11.152;2022-10-12T05:05:55;14.73;;;10.07;;
14768;SDS011;7476;49.404;11.152;2022-10-12T05:08:21;14.90;;;9.97;;
14768;SDS011;7476;49.404;11.152;2022-10-12T05:10:48;16.60;;;11.03;;
14768;SDS011;7476;49.404;11.152;2022-10-12T05:13:15;13.90;;;10.27;;
14768;SDS011;7476;49.404;11.152;2022-10-12T05:15:42;16.97;;;11.60;;
14768;SDS011;7476;49.404;11.152;2022-10-12T05:18:10;19.87;;;11.67;;
14768;SDS011;7476;49.404;11.152;2022-10-12T05:20:36;14.57;;;10.23;;
14768;SDS011;7476;49.404;11.152;2022-10-12T05:23:05;14.97;;;10.77;;
14768;SDS011;7476;49.404;11.152;2022-10-12T05:25:31;17.10;;;11.03;;
14768;SDS011;7476;49.404;11.152;2022-10-12T05:27:59;16.23;;;11.47;;
14768;SDS011;7476;49.404;11.152;2022-10-12T05:30:26;13.73;;;10.53;;
14768;SDS011;7476;49.404;11.152;2022-10-12T05:32:52;14.30;;;10.90;;
14768;SDS011;7476;49.404;11.152;2022-10-12T05:35:19;12.00;;;10.43;;
14768;SDS011;7476;49.404;11.152;2022-10-12T05:37:46;16.57;;;11.40;;
14768;SDS011;7476;49.404;11.152;2022-10-12T05:40:14;13.57;;;10.43;;
14768;SDS011;7476;49.404;11.152;2022-10-12T05:42:41;19.23;;;11.03;;
14768;SDS011;7476;49.404;11.152;2022-10-12T05:45:08;18.00;;;11.73;;
14768;SDS011;7476;49.404;11.152;2022-10-12T05:47:36;18.57;;;11.80;;
14768;SDS011;7476;49.404;11.152;2022-10-12T05:50:03;18.40;;;12.00;;
14768;SDS011;7476;49.404;11.152;2022-10-12T05:52:30;16.30;;;12.40;;
14768;SDS011;7476;49.404;11.152;2022-10-12T05:54:57;17.20;;;12.30;;
14768;SDS011;7476;49.404;11.152;2022-10-12T05:57:25;17.83;;;11.10;;
14768;SDS011;7476;49.404;11.152;2022-10-12T05:59:52;19.23;;;12.07;;
14768;SDS011;7476;49.404;11.152;2022-10-12T06:02:18;17.50;;;12.47;;
14768;SDS011;7476;49.404;11.152;2022-10-12T06:04:45;15.60;;;12.10;;
14768;SDS011;7476;49.404;11.152;2022-10-12T06:07:12;17.10;;;13.33;;
14768;SDS011;7476;49.404;11.152;2022-10-12T06:09:38;16.07;;;11.87;;
14768;SDS011;7476;49.404;11.152;2022-10-12T06:12:05;17.17;;;11.47;;
14768;SDS011;7476;49.404;11.152;2022-10-12T06:14:34;14.73;;;11.50;;
14768;SDS011;7476;49.404;11.152;2022-10-12T06:17:00;19.73;;;13.17;;
14768;SDS011;7476;49.404;11.152;2022-10-12T06:19:27;18.43;;;12.97;;
14768;SDS011;7476;49.404;11.152;2022-10-12T06:21:54;17.73;;;12.40;;
14768;SDS011;7476;49.404;11.152;2022-10-12T06:24:21;18.57;;;12.30;;
14768;SDS011;7476;49.404;11.152;2022-10-12T06:26:48;17.23;;;12.77;;
14768;SDS011;7476;49.404;11.152;2022-10-12T06:29:14;16.00;;;12.47;;
14768;SDS011;7476;49.404;11.152;2022-10-12T06:31:42;20.80;;;14.37;;
14768;SDS011;7476;49.404;11.152;2022-10-12T06:34:09;21.60;;;14.50;;
14768;SDS011;7476;49.404;11.152;2022-10-12T06:36:36;23.57;;;15.57;;
14768;SDS011;7476;49.404;11.152;2022-10-12T06:39:02;18.60;;;13.93;;
14768;SDS011;7476;49.404;11.152;2022-10-12T06:41:29;22.73;;;15.10;;
14768;SDS011;7476;49.404;11.152;2022-10-12T06:43:56;25.97;;;15.13;;
14768;SDS011;7476;49.404;11.152;2022-10-12T06:46:22;25.93;;;14.43;;
14768;SDS011;7476;49.404;11.152;2022-10-12T06:48:51;19.37;;;13.47;;
14768;SDS011;7476;49.404;11.152;2022-10-12T06:51:17;19.00;;;13.50;;
14768;SDS011;7476;49.404;11.152;2022-10-12T06:53:44;25.03;;;15.63;;
14768;SDS011;7476;49.404;11.152;2022-10-12T06:56:11;24.23;;;15.40;;
14768;SDS011;7476;49.404;11.152;2022-10-12T06:58:38;25.57;;;16.80;;
14768;SDS011;7476;49.404;11.152;2022-10-12T07:01:06;23.60;;;16.83;;
14768;SDS011;7476;49.404;11.152;2022-10-12T07:03:34;26.20;;;17.03;;
14768;SDS011;7476;49.404;11.152;2022-10-12T07:06:06;25.73;;;17.83;;
14768;SDS011;7476;49.404;11.152;2022-10-12T07:08:34;25.43;;;17.30;;
14768;SDS011;7476;49.404;11.152;2022-10-12T07:11:01;22.13;;;16.17;;
14768;SDS011;7476;49.404;11.152;2022-10-12T07:13:30;21.80;;;16.70;;
14768;SDS011;7476;49.404;11.152;2022-10-12T07:15:57;23.23;;;16.30;;
14768;SDS011;7476;49.404;11.152;2022-10-12T07:18:24;21.73;;;15.87;;
14768;SDS011;7476;49.404;11.152;2022-10-12T07:20:54;21.27;;;15.77;;
14768;SDS011;7476;49.404;11.152;2022-10-12T07:23:25;21.37;;;14.93;;
14768;SDS011;7476;49.404;11.152;2022-10-12T07:25:51;21.93;;;14.60;;
14768;SDS011;7476;49.404;11.152;2022-10-12T07:28:19;21.00;;;14.67;;
14768;SDS011;7476;49.404;11.152;2022-10-12T07:30:46;21.13;;;14.47;;
14768;SDS011;7476;49.404;11.152;2022-10-12T07:33:13;17.43;;;13.53;;
14768;SDS011;7476;49.404;11.152;2022-10-12T07:35:39;17.97;;;15.03;;
14768;SDS011;7476;49.404;11.152;2022-10-12T07:38:06;18.90;;;12.73;;
14768;SDS011;7476;49.404;11.152;2022-10-12T07:40:34;15.43;;;13.13;;
14768;SDS011;7476;49.404;11.152;2022-10-12T07:43:02;18.13;;;14.00;;
14768;SDS011;7476;49.404;11.152;2022-10-12T07:45:29;18.37;;;13.27;;
14768;SDS011;7476;49.404;11.152;2022-10-12T07:47:55;18.77;;;14.07;;
14768;SDS011;7476;49.404;11.152;2022-10-12T07:50:22;22.57;;;15.23;;
14768;SDS011;7476;49.404;11.152;2022-10-12T07:55:24;20.47;;;13.57;;
14768;SDS011;7476;49.404;11.152;2022-10-12T07:57:53;18.00;;;13.50;;
14768;SDS011;7476;49.404;11.152;2022-10-12T08:00:19;17.93;;;13.23;;
14768;SDS011;7476;49.404;11.152;2022-10-12T08:02:46;19.60;;;13.43;;
14768;SDS011;7476;49.404;11.152;2022-10-12T08:05:13;17.93;;;13.27;;
14768;SDS011;7476;49.404;11.152;2022-10-12T08:07:40;17.63;;;12.77;;
14768;SDS011;7476;49.404;11.152;2022-10-12T08:10:06;17.50;;;13.13;;
14768;SDS011;7476;49.404;11.152;2022-10-12T08:12:33;16.63;;;12.83;;
14768;SDS011;7476;49.404;11.152;2022-10-12T08:15:01;17.83;;;13.27;;
14768;SDS011;7476;49.404;11.152;2022-10-12T08:17:28;16.40;;;11.83;;
14768;SDS011;7476;49.404;11.152;2022-10-12T08:19:55;17.37;;;12.57;;
14768;SDS011;7476;49.404;11.152;2022-10-12T08:22:22;16.63;;;12.17;;
14768;SDS011;7476;49.404;11.152;2022-10-12T08:24:48;17.50;;;12.60;;
14768;SDS011;7476;49.404;11.152;2022-10-12T08:27:15;17.17;;;12.47;;
14768;SDS011;7476;49.404;11.152;2022-10-12T08:29:42;15.17;;;11.00;;
14768;SDS011;7476;49.404;11.152;2022-10-12T08:32:10;13.50;;;10.87;;
14768;SDS011;7476;49.404;11.152;2022-10-12T08:34:36;12.50;;;10.57;;
14768;SDS011;7476;49.404;11.152;2022-10-12T08:37:03;17.70;;;11.30;;
14768;SDS011;7476;49.404;11.152;2022-10-12T08:39:30;16.57;;;12.07;;
14768;SDS011;7476;49.404;11.152;2022-10-12T08:41:59;12.57;;;11.27;;
14768;SDS011;7476;49.404;11.152;2022-10-12T08:44:51;13.57;;;10.77;;
14768;SDS011;7476;49.404;11.152;2022-10-12T08:47:33;13.57;;;11.67;;
14768;SDS011;7476;49.404;11.152;2022-10-12T08:50:06;15.90;;;10.27;;
14768;SDS011;7476;49.404;11.152;2022-10-12T08:52:40;13.43;;;11.40;;
14768;SDS011;7476;49.404;11.152;2022-10-12T08:55:15;15.37;;;11.77;;
14768;SDS011;7476;49.404;11.152;2022-10-12T08:57:49;14.17;;;11.10;;
14768;SDS011;7476;49.404;11.152;2022-10-12T09:00:19;12.67;;;11.33;;
14768;SDS011;7476;49.404;11.152;2022-10-12T09:02:50;14.10;;;11.30;;
14768;SDS011;7476;49.404;11.152;2022-10-12T09:05:26;18.33;;;12.37;;
14768;SDS011;7476;49.404;11.152;2022-10-12T09:07:59;14.70;;;10.70;;
14768;SDS011;7476;49.404;11.152;2022-10-12T09:10:31;14.20;;;10.57;;
14768;SDS011;7476;49.404;11.152;2022-10-12T09:13:10;13.70;;;11.50;;
14768;SDS011;7476;49.404;11.152;2022-10-12T09:15:47;13.87;;;11.20;;
14768;SDS011;7476;49.404;11.152;2022-10-12T09:18:20;14.50;;;11.23;;
14768;SDS011;7476;49.404;11.152;2022-10-12T09:20:51;14.03;;;11.00;;
14768;SDS011;7476;49.404;11.152;2022-10-12T09:23:22;12.77;;;10.37;;
14768;SDS011;7476;49.404;11.152;2022-10-12T09:25:51;16.90;;;11.47;;
14768;SDS011;7476;49.404;11.152;2022-10-12T09:28:24;15.20;;;10.70;;
14768;SDS011;7476;49.404;11.152;2022-10-12T09:30:59;12.10;;;10.70;;
14768;SDS011;7476;49.404;11.152;2022-10-12T09:33:34;11.50;;;10.00;;
14768;SDS011;7476;49.404;11.152;2022-10-12T09:36:06;14.43;;;10.77;;
14768;SDS011;7476;49.404;11.152;2022-10-12T09:38:37;14.73;;;10.83;;
14768;SDS011;7476;49.404;11.152;2022-10-12T09:41:04;17.13;;;10.47;;
14768;SDS011;7476;49.404;11.152;2022-10-12T09:43:31;16.60;;;10.27;;
14768;SDS011;7476;49.404;11.152;2022-10-12T09:45:58;16.10;;;10.50;;
14768;SDS011;7476;49.404;11.152;2022-10-12T09:48:30;15.73;;;11.13;;
14768;SDS011;7476;49.404;11.152;2022-10-12T09:50:59;17.87;;;11.07;;
14768;SDS011;7476;49.404;11.152;2022-10-12T09:53:28;14.23;;;11.43;;
14768;SDS011;7476;49.404;11.152;2022-10-12T09:55:59;16.30;;;11.57;;
14768;SDS011;7476;49.404;11.152;2022-10-12T09:58:29;15.97;;;11.67;;
14768;SDS011;7476;49.404;11.152;2022-10-12T10:01:12;13.03;;;10.70;;
14768;SDS011;7476;49.404;11.152;2022-10-12T10:03:42;15.33;;;10.50;;
14768;SDS011;7476;49.404;11.152;2022-10-12T10:06:11;13.57;;;10.33;;
14768;SDS011;7476;49.404;11.152;2022-10-12T10:08:39;13.87;;;11.13;;
14768;SDS011;7476;49.404;11.152;2022-10-12T10:11:12;16.03;;;10.90;;
14768;SDS011;7476;49.404;11.152;2022-10-12T10:13:45;12.10;;;9.90;;
14768;SDS011;7476;49.404;11.152;2022-10-12T10:16:14;15.10;;;10.17;;
14768;SDS011;7476;49.404;11.152;2022-10-12T10:18:41;13.30;;;10.33;;
14768;SDS011;7476;49.404;11.152;2022-10-12T10:21:14;15.50;;;10.83;;
14768;SDS011;7476;49.404;11.152;2022-10-12T10:23:49;15.50;;;10.47;;
14768;SDS011;7476;49.404;11.152;2022-10-12T10:26:18;17.47;;;10.43;;
14768;SDS011;7476;49.404;11.152;2022-10-12T10:28:47;10.93;;;9.50;;
14768;SDS011;7476;49.404;11.152;2022-10-12T10:31:17;13.50;;;9.90;;
14768;SDS011;7476;49.404;11.152;2022-10-12T10:34:01;12.43;;;10.13;;
14768;SDS011;7476;49.404;11.152;2022-10-12T10:36:36;10.77;;;9.23;;
14768;SDS011;7476;49.404;11.152;2022-10-12T10:39:05;14.17;;;9.57;;
14768;SDS011;7476;49.404;11.152;2022-10-12T10:41:40;14.60;;;8.83;;
14768;SDS011;7476;49.404;11.152;2022-10-12T10:44:16;13.93;;;9.23;;
14768;SDS011;7476;49.404;11.152;2022-10-12T10:46:48;13.93;;;9.90;;
14768;SDS011;7476;49.404;11.152;2022-10-12T10:49:20;12.67;;;8.00;;
14768;SDS011;7476;49.404;11.152;2022-10-12T10:51:53;12.40;;;8.77;;
14768;SDS011;7476;49.404;11.152;2022-10-12T10:54:26;14.60;;;9.10;;
14768;SDS011;7476;49.404;11.152;2022-10-12T10:56:59;10.93;;;8.27;;
14768;SDS011;7476;49.404;11.152;2022-10-12T10:59:34;12.87;;;9.70;;
14768;SDS011;7476;49.404;11.152;2022-10-12T11:02:15;15.40;;;8.73;;
14768;SDS011;7476;49.404;11.152;2022-10-12T11:04:47;12.63;;;8.30;;
14768;SDS011;7476;49.404;11.152;2022-10-12T11:07:22;11.40;;;7.90;;
14768;SDS011;7476;49.404;11.152;2022-10-12T11:09:54;9.43;;;7.80;;
14768;SDS011;7476;49.404;11.152;2022-10-12T11:12:23;12.70;;;8.43;;
14768;SDS011;7476;49.404;11.152;2022-10-12T11:14:54;10.73;;;7.43;;
14768;SDS011;7476;49.404;11.152;2022-10-12T11:17:26;10.33;;;7.57;;
14768;SDS011;7476;49.404;11.152;2022-10-12T11:19:57;11.33;;;7.73;;
14768;SDS011;7476;49.404;11.152;2022-10-12T11:22:41;11.80;;;7.87;;
14768;SDS011;7476;49.404;11.152;2022-10-12T11:25:13;11.80;;;8.33;;
14768;SDS011;7476;49.404;11.152;2022-10-12T11:27:46;11.17;;;7.70;;
14768;SDS011;7476;49.404;11.152;2022-10-12T11:30:15;9.47;;;7.70;;
14768;SDS011;7476;49.404;11.152;2022-10-12T11:32:45;9.13;;;7.07;;
14768;SDS011;7476;49.404;11.152;2022-10-12T11:35:19;11.30;;;7.40;;
14768;SDS011;7476;49.404;11.152;2022-10-12T11:37:54;11.40;;;6.77;;
14768;SDS011;7476;49.404;11.152;2022-10-12T11:40:25;9.70;;;6.07;;
14768;SDS011;7476;49.404;11.152;2022-10-12T11:42:56;11.80;;;7.60;;
14768;SDS011;7476;49.404;11.152;2022-10-12T11:45:30;9.40;;;6.53;;
14768;SDS011;7476;49.404;11.152;2022-10-12T11:48:04;9.80;;;6.03;;
14768;SDS011;7476;49.404;11.152;2022-10-12T11:50:36;7.77;;;6.10;;
14768;SDS011;7476;49.404;11.152;2022-10-12T11:53:10;8.80;;;7.30;;
14768;SDS011;7476;49.404;11.152;2022-10-12T11:55:51;10.60;;;6.47;;
14768;SDS011;7476;49.404;11.152;2022-10-12T11:58:27;10.20;;;5.77;;
14768;SDS011;7476;49.404;11.152;2022-10-12T12:01:02;8.63;;;6.30;;
14768;SDS011;7476;49.404;11.152;2022-10-12T12:03:52;10.63;;;6.53;;
14768;SDS011;7476;49.404;11.152;2022-10-12T12:06:46;14.10;;;6.10;;
14768;SDS011;7476;49.404;11.152;2022-10-12T12:09:30;10.97;;;6.93;;
14768;SDS011;7476;49.404;11.152;2022-10-12T12:12:09;10.97;;;6.33;;
14768;SDS011;7476;49.404;11.152;2022-10-12T12:14:46;11.03;;;6.20;;
14768;SDS011;7476;49.404;11.152;2022-10-12T12:17:28;8.90;;;6.07;;
14768;SDS011;7476;49.404;11.152;2022-10-12T12:19:57;10.63;;;6.80;;
14768;SDS011;7476;49.404;11.152;2022-10-12T12:22:25;7.43;;;6.00;;
14768;SDS011;7476;49.404;11.152;2022-10-12T12:24:57;11.37;;;6.57;;
14768;SDS011;7476;49.404;11.152;2022-10-12T12:27:33;9.60;;;7.57;;
14768;SDS011;7476;49.404;11.152;2022-10-12T12:30:03;8.23;;;6.57;;
14768;SDS011;7476;49.404;11.152;2022-10-12T12:32:46;9.13;;;7.30;;
14768;SDS011;7476;49.404;11.152;2022-10-12T12:35:22;10.43;;;7.60;;
14768;SDS011;7476;49.404;11.152;2022-10-12T12:38:02;12.10;;;7.40;;
14768;SDS011;7476;49.404;11.152;2022-10-12T12:40:34;12.10;;;7.03;;
14768;SDS011;7476;49.404;11.152;2022-10-12T12:46:00;10.17;;;6.60;;
14768;SDS011;7476;49.404;11.152;2022-10-12T12:51:23;8.00;;;7.10;;
14768;SDS011;7476;49.404;11.152;2022-10-12T12:53:57;9.97;;;7.23;;
14768;SDS011;7476;49.404;11.152;2022-10-12T12:56:29;11.37;;;6.70;;
14768;SDS011;7476;49.404;11.152;2022-10-12T13:02:20;10.17;;;6.97;;
14768;SDS011;7476;49.404;11.152;2022-10-12T13:05:22;13.83;;;7.47;;
14768;SDS011;7476;49.404;11.152;2022-10-12T13:08:16;11.27;;;6.60;;
14768;SDS011;7476;49.404;11.152;2022-10-12T13:11:16;11.20;;;7.60;;
14768;SDS011;7476;49.404;11.152;2022-10-12T13:17:33;10.67;;;7.00;;
14768;SDS011;7476;49.404;11.152;2022-10-12T13:20:20;9.30;;;5.70;;
14768;SDS011;7476;49.404;11.152;2022-10-12T13:22:52;10.47;;;6.77;;
14768;SDS011;7476;49.404;11.152;2022-10-12T13:25:24;10.07;;;6.30;;
14768;SDS011;7476;49.404;11.152;2022-10-12T13:27:55;8.13;;;6.07;;
14768;SDS011;7476;49.404;11.152;2022-10-12T13:30:29;7.97;;;6.95;;
14768;SDS011;7476;49.404;11.152;2022-10-12T13:36:19;13.48;;;7.85;;
14768;SDS011;7476;49.404;11.152;2022-10-12T13:38:53;10.65;;;7.55;;
14768;SDS011;7476;49.404;11.152;2022-10-12T13:41:23;10.77;;;7.30;;
14768;SDS011;7476;49.404;11.152;2022-10-12T13:43:56;11.13;;;7.30;;
14768;SDS011;7476;49.404;11.152;2022-10-12T13:46:34;10.50;;;7.70;;
14768;SDS011;7476;49.404;11.152;2022-10-12T13:49:11;10.43;;;7.40;;
14768;SDS011;7476;49.404;11.152;2022-10-12T13:51:42;11.37;;;7.63;;
14768;SDS011;7476;49.404;11.152;2022-10-12T13:54:14;14.13;;;8.00;;
14768;SDS011;7476;49.404;11.152;2022-10-12T13:56:42;10.50;;;6.90;;
14768;SDS011;7476;49.404;11.152;2022-10-12T13:59:10;10.50;;;8.37;;
14768;SDS011;7476;49.404;11.152;2022-10-12T14:01:48;10.40;;;8.33;;
14768;SDS011;7476;49.404;11.152;2022-10-12T14:04:20;10.40;;;7.77;;
14768;SDS011;7476;49.404;11.152;2022-10-12T14:06:50;12.37;;;8.93;;
14768;SDS011;7476;49.404;11.152;2022-10-12T14:09:22;14.07;;;9.30;;
14768;SDS011;7476;49.404;11.152;2022-10-12T14:11:51;10.70;;;8.70;;
14768;SDS011;7476;49.404;11.152;2022-10-12T14:14:24;15.03;;;9.40;;
14768;SDS011;7476;49.404;11.152;2022-10-12T14:17:02;10.67;;;7.97;;
14768;SDS011;7476;49.404;11.152;2022-10-12T14:19:45;13.20;;;9.20;;
14768;SDS011;7476;49.404;11.152;2022-10-12T14:22:19;11.10;;;7.83;;
14768;SDS011;7476;49.404;11.152;2022-10-12T14:25:05;13.67;;;8.70;;
14768;SDS011;7476;49.404;11.152;2022-10-12T14:27:36;13.53;;;7.90;;
14768;SDS011;7476;49.404;11.152;2022-10-12T14:30:14;12.57;;;8.47;;
14768;SDS011;7476;49.404;11.152;2022-10-12T14:32:49;10.30;;;7.53;;
14768;SDS011;7476;49.404;11.152;2022-10-12T14:35:21;10.43;;;7.87;;
14768;SDS011;7476;49.404;11.152;2022-10-12T14:37:54;11.47;;;7.63;;
14768;SDS011;7476;49.404;11.152;2022-10-12T14:40:23;10.83;;;7.47;;
14768;SDS011;7476;49.404;11.152;2022-10-12T14:42:54;10.03;;;7.87;;
14768;SDS011;7476;49.404;11.152;2022-10-12T14:45:28;12.03;;;8.27;;
14768;SDS011;7476;49.404;11.152;2022-10-12T14:47:58;10.87;;;7.83;;
14768;SDS011;7476;49.404;11.152;2022-10-12T14:50:25;12.67;;;7.40;;
14768;SDS011;7476;49.404;11.152;2022-10-12T14:52:57;13.33;;;8.27;;
14768;SDS011;7476;49.404;11.152;2022-10-12T14:55:28;11.80;;;8.40;;
14768;SDS011;7476;49.404;11.152;2022-10-12T14:57:56;11.20;;;7.47;;
14768;SDS011;7476;49.404;11.152;2022-10-12T15:00:24;10.40;;;8.10;;
14768;SDS011;7476;49.404;11.152;2022-10-12T15:02:54;10.57;;;8.43;;
14768;SDS011;7476;49.404;11.152;2022-10-12T15:05:24;9.50;;;7.60;;
14768;SDS011;7476;49.404;11.152;2022-10-12T15:07:52;12.43;;;8.07;;
14768;SDS011;7476;49.404;11.152;2022-10-12T15:10:21;11.50;;;8.33;;